Time;durP1;ratioP1;P1;durP2;ratioP2;P2;SDS_P1;SDS_P2;PMS_P1;PMS_P2;Temp;Humidity;BMP_temperature;BMP_pressure;BME280_temperature;BME280_humidity;BME280_pressure;Samples;Min_cycle;Max_cycle;Signal;HPM_P1;HPM_P2
2023/01/03 00:02:14;;;;;;;62.47;35.50;;;;;;;;;;5053158;28;20056;-59
2023/01/03 00:04:41;;;;;;;61.83;34.88;;;;;;;;;;5035317;28;20395;-59
2023/01/03 00:07:32;;;;;;;61.00;33.60;;;;;;;;;;5051820;28;20406;-59
2023/01/03 00:10:01;;;;;;;59.20;33.25;;;;;;;;;;5053174;28;20391;-59
2023/01/03 00:12:30;;;;;;;59.75;34.92;;;;;;;;;;5051866;28;20048;-59
2023/01/03 00:14:59;;;;;;;60.28;34.63;;;;;;;;;;5052776;28;20059;-59
2023/01/03 00:17:27;;;;;;;62.92;34.03;;;;;;;;;;5052845;28;20045;-59
2023/01/03 00:19:54;;;;;;;61.58;34.92;;;;;;;;;;5052948;28;20395;-59
2023/01/03 00:22:22;;;;;;;60.22;34.17;;;;;;;;;;5052901;28;20052;-59
2023/01/03 00:24:51;;;;;;;57.05;33.65;;;;;;;;;;5052799;28;20071;-59
2023/01/03 00:27:19;;;;;;;66.95;35.92;;;;;;;;;;5052814;28;20112;-59
2023/01/03 00:29:46;;;;;;;61.88;35.03;;;;;;;;;;5051574;28;20045;-59
2023/01/03 00:32:14;;;;;;;63.92;34.53;;;;;;;;;;5052813;28;20028;-59
2023/01/03 00:34:43;;;;;;;60.40;34.13;;;;;;;;;;5052419;28;20086;-59
2023/01/03 00:37:11;;;;;;;63.53;34.88;;;;;;;;;;5052531;28;20045;-57
2023/01/03 00:39:38;;;;;;;68.38;36.67;;;;;;;;;;5052489;28;20487;-57
2023/01/03 00:42:06;;;;;;;72.72;36.72;;;;;;;;;;5052482;28;20045;-57
2023/01/03 00:44:34;;;;;;;76.40;37.40;;;;;;;;;;5052792;28;20049;-58
2023/01/03 00:47:01;;;;;;;75.50;36.80;;;;;;;;;;5052636;28;20052;-57
2023/01/03 00:49:29;;;;;;;88.35;40.13;;;;;;;;;;5052408;28;20075;-58
2023/01/03 00:51:57;;;;;;;79.30;39.78;;;;;;;;;;5052458;28;20041;-58
2023/01/03 00:54:24;;;;;;;82.35;39.50;;;;;;;;;;5052550;28;20430;-58
2023/01/03 00:56:52;;;;;;;89.78;42.65;;;;;;;;;;5052289;28;20045;-58
2023/01/03 00:59:20;;;;;;;78.50;41.20;;;;;;;;;;5052354;28;20041;-58
2023/01/03 01:01:50;;;;;;;77.40;41.10;;;;;;;;;;5052270;28;20090;-58
2023/01/03 01:04:23;;;;;;;78.60;38.55;;;;;;;;;;5052249;28;20048;-58
2023/01/03 01:06:52;;;;;;;75.78;38.75;;;;;;;;;;5051038;28;20049;-58
2023/01/03 01:09:22;;;;;;;76.32;38.15;;;;;;;;;;5052315;28;20044;-58
2023/01/03 01:11:49;;;;;;;75.38;37.40;;;;;;;;;;5052328;28;20560;-59
2023/01/03 01:14:21;;;;;;;71.97;36.15;;;;;;;;;;5052420;28;20552;-58
2023/01/03 01:17:15;;;;;;;71.47;37.22;;;;;;;;;;5052089;28;20041;-58
2023/01/03 01:19:49;;;;;;;72.95;36.42;;;;;;;;;;5052492;28;20033;-58
2023/01/03 01:22:16;;;;;;;75.50;35.55;;;;;;;;;;5052175;28;20049;-58
2023/01/03 01:24:44;;;;;;;71.45;36.25;;;;;;;;;;5056178;28;20135;-59
2023/01/03 01:27:11;;;;;;;73.85;37.72;;;;;;;;;;5056087;28;20049;-58
2023/01/03 01:29:38;;;;;;;68.57;35.85;;;;;;;;;;5055987;28;20051;-58
2023/01/03 01:32:06;;;;;;;71.07;35.63;;;;;;;;;;5055989;28;20045;-58
2023/01/03 01:34:34;;;;;;;66.55;35.95;;;;;;;;;;5055765;28;20450;-58
2023/01/03 01:37:02;;;;;;;62.78;33.83;;;;;;;;;;5055956;28;20041;-58
2023/01/03 01:39:29;;;;;;;62.67;32.78;;;;;;;;;;5055808;28;20437;-58
2023/01/03 01:44:47;;;;;;;65.40;34.20;;;;;;;;;;5055722;28;20041;-58
2023/01/03 01:47:27;;;;;;;64.15;32.88;;;;;;;;;;5054417;28;20037;-58
2023/01/03 01:50:15;;;;;;;60.95;32.55;;;;;;;;;;5055547;28;20048;-58
2023/01/03 01:52:48;;;;;;;69.72;33.17;;;;;;;;;;5048550;28;20049;-58
2023/01/03 01:55:18;;;;;;;61.70;32.20;;;;;;;;;;5055441;28;20049;-58
2023/01/03 01:57:45;;;;;;;61.72;32.10;;;;;;;;;;5055216;28;20119;-58
2023/01/03 02:00:13;;;;;;;65.78;31.70;;;;;;;;;;5055604;28;20445;-58
2023/01/03 02:02:44;;;;;;;59.83;30.75;;;;;;;;;;5055393;28;20090;-58
2023/01/03 02:05:12;;;;;;;63.95;31.55;;;;;;;;;;5055403;28;20451;-58
2023/01/03 02:07:39;;;;;;;66.82;33.03;;;;;;;;;;5055381;28;20114;-58
2023/01/03 02:10:09;;;;;;;76.63;33.60;;;;;;;;;;5055247;28;20045;-58
2023/01/03 02:15:41;;;;;;;72.93;34.88;;;;;;;;;;5055172;28;20033;-58
2023/01/03 02:18:17;;;;;;;80.28;35.75;;;;;;;;;;5055066;28;20044;-58
2023/01/03 02:21:04;;;;;;;108.45;37.90;;;;;;;;;;5055050;28;20076;-58
2023/01/03 02:23:50;;;;;;;118.43;37.40;;;;;;;;;;5054963;28;20110;-58
2023/01/03 02:26:43;;;;;;;140.85;40.17;;;;;;;;;;5055265;28;20045;-58
2023/01/03 02:29:20;;;;;;;146.52;40.88;;;;;;;;;;5053156;28;20045;-58
2023/01/03 02:32:05;;;;;;;152.45;42.25;;;;;;;;;;5054915;28;20051;-58
2023/01/03 02:34:44;;;;;;;176.38;40.55;;;;;;;;;;5053649;28;20127;-58
2023/01/03 02:37:33;;;;;;;164.80;43.30;;;;;;;;;;5054670;28;20067;-58
2023/01/03 02:40:28;;;;;;;164.40;42.63;;;;;;;;;;5054684;28;20487;-58
2023/01/03 02:43:01;;;;;;;172.43;39.85;;;;;;;;;;5039012;28;20071;-58
2023/01/03 02:45:32;;;;;;;197.40;42.70;;;;;;;;;;5054640;28;20059;-58
2023/01/03 02:48:10;;;;;;;154.18;43.40;;;;;;;;;;5054469;28;20394;-58
2023/01/03 02:50:51;;;;;;;138.85;41.97;;;;;;;;;;5053261;28;20247;-58
2023/01/03 02:53:21;;;;;;;130.40;39.38;;;;;;;;;;5054360;28;20045;-58
2023/01/03 02:55:50;;;;;;;154.10;36.60;;;;;;;;;;5054066;28;20037;-58
2023/01/03 02:58:20;;;;;;;138.98;37.05;;;;;;;;;;5054301;28;20526;-58
2023/01/03 03:00:51;;;;;;;100.35;34.17;;;;;;;;;;5054384;28;20056;-58
2023/01/03 03:03:21;;;;;;;134.05;36.03;;;;;;;;;;5054407;28;20041;-58
2023/01/03 03:06:09;;;;;;;112.18;36.42;;;;;;;;;;5054288;28;20041;-58
2023/01/03 03:08:36;;;;;;;129.38;37.05;;;;;;;;;;5047278;28;20057;-58
2023/01/03 03:13:52;;;;;;;104.57;35.40;;;;;;;;;;5054154;28;20047;-58
2023/01/03 03:16:46;;;;;;;105.53;35.00;;;;;;;;;;5053908;28;20037;-58
2023/01/03 03:24:48;;;;;;;124.78;34.67;;;;;;;;;;5053854;28;20037;-58
2023/01/03 03:24:50;;;;;;;106.80;34.42;;;;;;;;;;5053791;28;20041;-58
2023/01/03 03:30:09;;;;;;;96.40;34.20;;;;;;;;;;5053836;28;20072;-58
2023/01/03 03:32:37;;;;;;;101.10;34.40;;;;;;;;;;5053700;28;20051;-58
2023/01/03 03:35:08;;;;;;;106.25;34.90;;;;;;;;;;5053420;28;20049;-58
2023/01/03 03:37:37;;;;;;;94.50;33.65;;;;;;;;;;5053777;28;20426;-58
2023/01/03 03:45:45;;;;;;;105.68;35.15;;;;;;;;;;5053272;28;20045;-58
2023/01/03 03:48:29;;;;;;;101.97;33.08;;;;;;;;;;5052194;28;20044;-58
2023/01/03 03:51:14;;;;;;;100.85;32.47;;;;;;;;;;5053344;28;20078;-58
2023/01/03 03:53:43;;;;;;;73.55;32.72;;;;;;;;;;5053325;28;20068;-59
2023/01/03 03:56:17;;;;;;;80.65;32.30;;;;;;;;;;5053332;28;20087;-59
2023/01/03 03:58:47;;;;;;;74.68;33.22;;;;;;;;;;5053228;28;20044;-58
2023/01/03 04:01:18;;;;;;;78.60;34.45;;;;;;;;;;5053401;28;20457;-58
2023/01/03 04:03:47;;;;;;;77.43;32.90;;;;;;;;;;5053127;28;20116;-58
2023/01/03 04:06:20;;;;;;;108.75;33.17;;;;;;;;;;5053053;28;20128;-59
2023/01/03 04:08:47;;;;;;;99.10;32.92;;;;;;;;;;5052855;28;20499;-59
2023/01/03 04:11:15;;;;;;;77.60;32.72;;;;;;;;;;5052987;28;20091;-58
2023/01/03 04:13:42;;;;;;;63.67;32.80;;;;;;;;;;5052901;28;20441;-59
2023/01/03 04:16:10;;;;;;;93.40;32.67;;;;;;;;;;5052848;28;20037;-58
2023/01/03 04:18:38;;;;;;;107.45;33.92;;;;;;;;;;5052799;28;20372;-58
2023/01/03 04:21:05;;;;;;;95.35;33.38;;;;;;;;;;5052900;28;20090;-58
2023/01/03 04:23:33;;;;;;;111.20;33.33;;;;;;;;;;5052731;28;20074;-58
2023/01/03 04:26:00;;;;;;;83.53;34.20;;;;;;;;;;5052643;28;20037;-58
2023/01/03 04:28:28;;;;;;;116.50;33.03;;;;;;;;;;5052744;28;20064;-58
2023/01/03 04:30:55;;;;;;;117.70;33.25;;;;;;;;;;5052737;28;20044;-58
2023/01/03 04:33:24;;;;;;;116.38;32.70;;;;;;;;;;5052650;28;20421;-58
2023/01/03 04:35:51;;;;;;;101.68;32.50;;;;;;;;;;5052573;28;20049;-58
2023/01/03 04:38:19;;;;;;;108.90;31.88;;;;;;;;;;5052489;28;20048;-58
2023/01/03 04:40:46;;;;;;;120.13;33.53;;;;;;;;;;5052585;28;20041;-59
2023/01/03 04:46:00;;;;;;;101.43;30.88;;;;;;;;;;5052720;28;20460;-59
2023/01/03 04:48:27;;;;;;;97.47;32.55;;;;;;;;;;5052516;28;20120;-58
2023/01/03 04:50:55;;;;;;;92.57;32.58;;;;;;;;;;5052471;28;20041;-58
2023/01/03 04:53:23;;;;;;;96.45;34.88;;;;;;;;;;5052316;28;20041;-59
2023/01/03 04:55:51;;;;;;;101.60;34.22;;;;;;;;;;5051290;28;20127;-58
2023/01/03 04:58:19;;;;;;;108.45;38.67;;;;;;;;;;5051846;28;20115;-59
2023/01/03 05:00:46;;;;;;;108.85;37.72;;;;;;;;;;5052354;28;20037;-58
2023/01/03 05:03:15;;;;;;;88.00;37.55;;;;;;;;;;5052428;28;20434;-58
2023/01/03 05:05:45;;;;;;;81.05;36.47;;;;;;;;;;5052293;28;20426;-59
2023/01/03 05:08:12;;;;;;;76.40;37.22;;;;;;;;;;5052401;28;20098;-58
2023/01/03 05:10:40;;;;;;;81.65;34.63;;;;;;;;;;5052146;28;20048;-58
2023/01/03 05:13:08;;;;;;;114.65;47.30;;;;;;;;;;5052271;28;20040;-59
2023/01/03 05:15:36;;;;;;;131.88;57.60;;;;;;;;;;5052194;28;20037;-58
2023/01/03 05:18:04;;;;;;;130.57;54.72;;;;;;;;;;5051927;28;20095;-59
2023/01/03 05:26:22;;;;;;;129.90;56.53;;;;;;;;;;5051957;28;20669;-58
2023/01/03 05:28:49;;;;;;;;;;;;;;;;;;5051048;28;20040;-58
2023/01/03 05:31:17;;;;;;;101.63;51.50;;;;;;;;;;5051813;28;19956;-58
2023/01/03 05:33:44;;;;;;;107.18;50.72;;;;;;;;;;5051962;28;20041;-58
2023/01/03 05:36:12;;;;;;;105.93;52.03;;;;;;;;;;5050734;28;20111;-58
2023/01/03 05:38:39;;;;;;;114.10;56.15;;;;;;;;;;5051949;28;20084;-58
2023/01/03 05:41:07;;;;;;;106.78;50.65;;;;;;;;;;5051976;28;20037;-59
2023/01/03 05:43:34;;;;;;;96.70;47.42;;;;;;;;;;5052001;28;20107;-58
2023/01/03 05:46:02;;;;;;;107.85;49.15;;;;;;;;;;5051040;28;20071;-58
2023/01/03 05:48:29;;;;;;;118.43;53.33;;;;;;;;;;5049990;28;20045;-58
2023/01/03 05:50:57;;;;;;;134.98;58.33;;;;;;;;;;5050272;28;20103;-58
2023/01/03 05:53:25;;;;;;;123.13;55.00;;;;;;;;;;5050481;28;20514;-59
2023/01/03 05:55:52;;;;;;;109.13;50.70;;;;;;;;;;5050502;28;20041;-59
2023/01/03 05:58:20;;;;;;;84.97;44.35;;;;;;;;;;5050454;28;20052;-59
2023/01/03 06:00:47;;;;;;;86.03;45.28;;;;;;;;;;5050200;28;20041;-59
2023/01/03 06:03:15;;;;;;;88.82;45.38;;;;;;;;;;5051934;28;20125;-59
2023/01/03 06:05:43;;;;;;;93.70;44.08;;;;;;;;;;5051801;28;20037;-60
2023/01/03 06:08:16;;;;;;;96.28;47.28;;;;;;;;;;5051848;28;20037;-60
2023/01/03 06:10:44;;;;;;;101.50;48.30;;;;;;;;;;5053946;28;20045;-59
2023/01/03 06:13:12;;;;;;;111.03;52.20;;;;;;;;;;5055523;28;20066;-59
2023/01/03 06:15:39;;;;;;;116.00;55.40;;;;;;;;;;5055328;28;20045;-59
2023/01/03 06:18:06;;;;;;;119.25;53.85;;;;;;;;;;5055084;28;20049;-59
2023/01/03 06:20:34;;;;;;;122.70;54.00;;;;;;;;;;5055234;28;20044;-59
2023/01/03 06:23:02;;;;;;;127.28;57.05;;;;;;;;;;5055023;28;20041;-59
2023/01/03 06:25:29;;;;;;;153.85;63.30;;;;;;;;;;5054985;28;20061;-59
2023/01/03 06:27:57;;;;;;;170.63;64.15;;;;;;;;;;5055096;28;20100;-59
2023/01/03 06:30:24;;;;;;;148.07;60.83;;;;;;;;;;5054698;28;20457;-59
2023/01/03 06:32:52;;;;;;;135.82;55.53;;;;;;;;;;5053480;28;20037;-58
2023/01/03 06:35:20;;;;;;;115.00;50.28;;;;;;;;;;5054614;28;20111;-58
2023/01/03 06:37:47;;;;;;;107.00;48.10;;;;;;;;;;5054658;28;20487;-59
2023/01/03 06:40:15;;;;;;;105.07;45.75;;;;;;;;;;5036939;28;20041;-59
2023/01/03 06:42:42;;;;;;;92.35;45.67;;;;;;;;;;5054716;28;20504;-59
2023/01/03 06:53:33;;;;;;;88.68;42.72;;;;;;;;;;5054528;28;20048;-59
2023/01/03 06:56:00;;;;;;;96.47;41.83;;;;;;;;;;5054473;28;20509;-59
2023/01/03 06:58:27;;;;;;;79.68;38.70;;;;;;;;;;5054374;28;20044;-59
2023/01/03 07:00:56;;;;;;;73.65;37.97;;;;;;;;;;5054743;28;20047;-59
2023/01/03 07:03:24;;;;;;;78.32;37.08;;;;;;;;;;5054316;28;20121;-59
2023/01/03 07:05:51;;;;;;;62.25;34.55;;;;;;;;;;5054305;28;20044;-59
2023/01/03 07:08:19;;;;;;;59.25;34.10;;;;;;;;;;5054352;28;20040;-59
2023/01/03 07:10:46;;;;;;;53.55;33.35;;;;;;;;;;5053947;28;20128;-59
2023/01/03 07:16:00;;;;;;;53.53;32.47;;;;;;;;;;5054029;28;20059;-59
2023/01/03 07:18:27;;;;;;;54.15;34.92;;;;;;;;;;5053925;28;20048;-59
2023/01/03 07:20:55;;;;;;;56.00;33.90;;;;;;;;;;5053597;28;20075;-59
2023/01/03 07:23:22;;;;;;;52.42;33.90;;;;;;;;;;5053830;28;20041;-59
2023/01/03 07:25:54;;;;;;;55.88;32.83;;;;;;;;;;5053770;28;20037;-59
2023/01/03 07:28:22;;;;;;;52.58;32.25;;;;;;;;;;5053839;28;20044;-59
2023/01/03 07:30:50;;;;;;;47.50;30.90;;;;;;;;;;5053830;28;20124;-59
2023/01/03 07:33:18;;;;;;;50.08;32.55;;;;;;;;;;5053592;28;20455;-59
2023/01/03 07:35:45;;;;;;;48.75;30.45;;;;;;;;;;5053437;28;20053;-58
2023/01/03 07:38:13;;;;;;;46.20;30.23;;;;;;;;;;5053679;28;20077;-59
2023/01/03 07:40:40;;;;;;;48.90;32.08;;;;;;;;;;5053522;28;20095;-59
2023/01/03 07:45:56;;;;;;;46.63;30.45;;;;;;;;;;5053583;28;20038;-59
2023/01/03 07:48:23;;;;;;;46.20;30.23;;;;;;;;;;5053479;28;20040;-59
2023/01/03 07:50:56;;;;;;;45.80;28.55;;;;;;;;;;5053441;28;20546;-59
2023/01/03 07:53:24;;;;;;;45.67;28.70;;;;;;;;;;5052127;28;20148;-59
2023/01/03 07:55:51;;;;;;;41.50;26.88;;;;;;;;;;5053412;28;20509;-59
2023/01/03 07:58:19;;;;;;;41.47;27.58;;;;;;;;;;5053283;28;20044;-59
2023/01/03 08:00:46;;;;;;;42.03;26.92;;;;;;;;;;5052041;28;20132;-59
2023/01/03 08:03:14;;;;;;;45.00;28.30;;;;;;;;;;5053127;28;20045;-59
2023/01/03 08:05:42;;;;;;;40.08;27.52;;;;;;;;;;5053250;28;20531;-59
2023/01/03 08:08:09;;;;;;;43.45;29.20;;;;;;;;;;5053225;28;20114;-59
2023/01/03 08:13:24;;;;;;;43.58;28.80;;;;;;;;;;5053052;28;20072;-59
2023/01/03 08:15:55;;;;;;;45.80;29.88;;;;;;;;;;5052970;28;20033;-59
2023/01/03 08:18:24;;;;;;;43.67;28.83;;;;;;;;;;5052831;28;20051;-59
2023/01/03 08:20:54;;;;;;;42.17;28.30;;;;;;;;;;5052810;28;20037;-59
2023/01/03 08:23:22;;;;;;;45.65;28.65;;;;;;;;;;5052862;28;20040;-59
2023/01/03 08:25:50;;;;;;;41.50;28.55;;;;;;;;;;5052767;28;20045;-59
2023/01/03 08:28:17;;;;;;;43.53;29.23;;;;;;;;;;5052619;28;20049;-59
2023/01/03 08:30:49;;;;;;;41.70;28.75;;;;;;;;;;5052721;28;20411;-59
2023/01/03 08:33:18;;;;;;;42.25;28.63;;;;;;;;;;5052014;28;20513;-59
2023/01/03 08:35:47;;;;;;;42.47;28.27;;;;;;;;;;5051220;28;20510;-59
2023/01/03 08:38:18;;;;;;;41.28;28.20;;;;;;;;;;5052409;28;20072;-59
2023/01/03 08:40:46;;;;;;;43.13;28.45;;;;;;;;;;5052433;28;20040;-59
2023/01/03 08:43:14;;;;;;;41.83;28.25;;;;;;;;;;5052487;28;20431;-59
2023/01/03 08:45:41;;;;;;;39.33;26.83;;;;;;;;;;5052452;28;20041;-59
2023/01/03 08:48:10;;;;;;;38.63;27.10;;;;;;;;;;5052797;28;20410;-59
2023/01/03 08:50:38;;;;;;;37.67;26.38;;;;;;;;;;5052771;28;20462;-59
2023/01/03 08:53:05;;;;;;;38.67;27.50;;;;;;;;;;5052669;28;20080;-59
2023/01/03 08:55:33;;;;;;;37.08;25.33;;;;;;;;;;5052343;28;20059;-59
2023/01/03 08:58:00;;;;;;;35.92;25.92;;;;;;;;;;5052489;28;20184;-59
2023/01/03 09:00:28;;;;;;;36.80;25.23;;;;;;;;;;5052426;28;20037;-59
2023/01/03 09:02:59;;;;;;;35.70;25.23;;;;;;;;;;5052288;28;20071;-60
2023/01/03 09:05:27;;;;;;;34.40;23.67;;;;;;;;;;5052190;28;20048;-60
2023/01/03 09:07:55;;;;;;;30.65;21.52;;;;;;;;;;5051394;28;20048;-60
2023/01/03 09:10:22;;;;;;;32.03;22.35;;;;;;;;;;5052176;28;20073;-58
2023/01/03 09:12:50;;;;;;;30.33;22.40;;;;;;;;;;5052179;28;20099;-59
2023/01/03 09:15:18;;;;;;;35.05;24.75;;;;;;;;;;5052304;28;20343;-59
2023/01/03 09:17:48;;;;;;;30.45;21.55;;;;;;;;;;5052017;28;20040;-59
2023/01/03 09:20:16;;;;;;;29.63;21.67;;;;;;;;;;5052144;28;20068;-59
2023/01/03 09:22:44;;;;;;;31.35;22.25;;;;;;;;;;5051791;28;20490;-59
2023/01/03 09:25:11;;;;;;;29.15;20.13;;;;;;;;;;5051955;28;20150;-59
2023/01/03 09:27:39;;;;;;;26.55;19.00;;;;;;;;;;5051929;28;20045;-59
2023/01/03 09:30:07;;;;;;;24.95;18.50;;;;;;;;;;5051948;28;20045;-59
2023/01/03 09:32:34;;;;;;;29.20;19.17;;;;;;;;;;5052286;28;20041;-59
2023/01/03 09:35:02;;;;;;;27.77;20.63;;;;;;;;;;5051798;28;20080;-59
2023/01/03 09:37:29;;;;;;;27.60;18.70;;;;;;;;;;5052149;28;20390;-59
2023/01/03 09:39:57;;;;;;;26.85;19.08;;;;;;;;;;5051861;28;20048;-59
2023/01/03 09:45:23;;;;;;;25.80;18.60;;;;;;;;;;5054753;28;20040;-59
2023/01/03 09:47:51;;;;;;;25.45;17.83;;;;;;;;;;5055693;28;20499;-60
2023/01/03 09:50:23;;;;;;;28.77;19.27;;;;;;;;;;5055646;28;20069;-60
2023/01/03 10:05:08;;;;;;;20.77;15.68;;;;;;;;;;5055390;28;20041;-59
2023/01/03 10:07:50;;;;;;;23.85;15.88;;;;;;;;;;5055448;28;20164;-61
2023/01/03 10:10:18;;;;;;;22.65;15.90;;;;;;;;;;5055344;28;20049;-58
2023/01/03 10:13:00;;;;;;;23.88;17.25;;;;;;;;;;5055560;28;20110;-59
2023/01/03 10:15:46;;;;;;;24.27;16.98;;;;;;;;;;5054970;28;20060;-60
2023/01/03 10:18:20;;;;;;;25.88;17.48;;;;;;;;;;5053784;28;20414;-59
2023/01/03 10:20:48;;;;;;;23.42;16.63;;;;;;;;;;5055038;28;20098;-60
2023/01/03 10:23:16;;;;;;;22.98;16.60;;;;;;;;;;5055153;28;20529;-60
2023/01/03 10:25:45;;;;;;;24.13;17.17;;;;;;;;;;5055093;28;20136;-59
2023/01/03 10:28:16;;;;;;;25.98;17.92;;;;;;;;;;5054925;28;20103;-60
2023/01/03 10:30:59;;;;;;;25.88;18.13;;;;;;;;;;5054680;28;20052;-59
2023/01/03 10:33:46;;;;;;;27.25;17.88;;;;;;;;;;5054816;28;20493;-60
2023/01/03 10:36:18;;;;;;;22.60;16.75;;;;;;;;;;5054654;28;20063;-60
2023/01/03 10:38:46;;;;;;;24.15;16.73;;;;;;;;;;5054596;28;20482;-60
2023/01/03 10:41:38;;;;;;;21.98;16.38;;;;;;;;;;5054695;28;20051;-60
2023/01/03 10:44:05;;;;;;;21.35;15.10;;;;;;;;;;5054447;28;20045;-60
2023/01/03 10:46:33;;;;;;;20.70;15.80;;;;;;;;;;5054594;28;20037;-60
2023/01/03 10:49:20;;;;;;;22.35;16.38;;;;;;;;;;5054467;28;20457;-60
2023/01/03 10:52:17;;;;;;;23.05;16.80;;;;;;;;;;5053317;28;20052;-60
2023/01/03 10:54:45;;;;;;;26.00;16.23;;;;;;;;;;5054227;28;20091;-60
2023/01/03 10:57:33;;;;;;;25.33;16.70;;;;;;;;;;5053707;28;20053;-60
2023/01/03 11:00:00;;;;;;;24.98;17.42;;;;;;;;;;5042940;28;20041;-60
2023/01/03 11:02:27;;;;;;;27.50;17.65;;;;;;;;;;5054263;28;20048;-60
2023/01/03 11:05:11;;;;;;;23.52;17.38;;;;;;;;;;5054407;28;20037;-60
2023/01/03 11:07:48;;;;;;;25.70;17.92;;;;;;;;;;5054439;28;20048;-60
2023/01/03 11:10:16;;;;;;;24.75;18.20;;;;;;;;;;5054277;28;20033;-60
2023/01/03 11:12:45;;;;;;;26.10;18.35;;;;;;;;;;5054183;28;20033;-59
2023/01/03 11:15:34;;;;;;;25.75;18.60;;;;;;;;;;5054083;28;20049;-60
2023/01/03 11:18:15;;;;;;;22.80;16.98;;;;;;;;;;5053984;28;20041;-60
2023/01/03 11:20:43;;;;;;;27.35;18.25;;;;;;;;;;5053902;28;20128;-60
2023/01/03 11:23:30;;;;;;;25.83;18.05;;;;;;;;;;5054058;28;20045;-60
2023/01/03 11:26:05;;;;;;;28.60;17.52;;;;;;;;;;5033272;28;20053;-60
2023/01/03 11:28:42;;;;;;;26.92;18.30;;;;;;;;;;5053821;28;20033;-59
2023/01/03 11:31:13;;;;;;;27.27;18.20;;;;;;;;;;5054109;28;20453;-59
2023/01/03 11:33:41;;;;;;;22.98;17.67;;;;;;;;;;5054118;28;20071;-61
2023/01/03 11:36:08;;;;;;;25.02;16.75;;;;;;;;;;5053721;28;20105;-58
2023/01/03 11:38:38;;;;;;;25.73;18.17;;;;;;;;;;5052389;28;20407;-60
2023/01/03 11:41:09;;;;;;;26.58;18.02;;;;;;;;;;5053718;28;20064;-61
2023/01/03 11:43:55;;;;;;;26.10;17.80;;;;;;;;;;5053645;28;20041;-59
2023/01/03 11:46:35;;;;;;;25.77;19.15;;;;;;;;;;5053687;28;20055;-59
2023/01/03 11:49:05;;;;;;;24.70;17.95;;;;;;;;;;5053469;28;20056;-59
2023/01/03 11:52:05;;;;;;;25.20;18.58;;;;;;;;;;5053472;28;20080;-60
2023/01/03 11:54:48;;;;;;;26.27;17.90;;;;;;;;;;5031044;28;20570;-60
2023/01/03 11:57:46;;;;;;;25.73;17.40;;;;;;;;;;5052047;28;20447;-60
2023/01/03 12:00:26;;;;;;;23.42;17.38;;;;;;;;;;5037692;28;20091;-60
2023/01/03 12:03:06;;;;;;;24.77;17.63;;;;;;;;;;5053160;28;20484;-60
2023/01/03 12:05:41;;;;;;;24.95;18.42;;;;;;;;;;5053206;28;20487;-60
2023/01/03 12:08:09;;;;;;;;;;;;;;;;;;5053493;28;20044;-60
2023/01/03 12:10:39;;;;;;;23.88;17.60;;;;;;;;;;5053360;28;19920;-60
2023/01/03 12:13:16;;;;;;;24.75;18.00;;;;;;;;;;5053048;28;20061;-60
2023/01/03 12:15:51;;;;;;;22.67;17.88;;;;;;;;;;5053014;28;20045;-60
2023/01/03 12:18:28;;;;;;;46.10;25.52;;;;;;;;;;5052757;28;20037;-60
2023/01/03 12:20:57;;;;;;;27.20;18.00;;;;;;;;;;5052777;28;20044;-60
2023/01/03 12:23:27;;;;;;;21.15;16.40;;;;;;;;;;5052704;28;20098;-60
2023/01/03 12:25:57;;;;;;;22.85;18.02;;;;;;;;;;5052811;28;20069;-60
2023/01/03 12:28:25;;;;;;;24.40;17.20;;;;;;;;;;5052793;28;20045;-60
2023/01/03 12:30:55;;;;;;;24.38;17.60;;;;;;;;;;5052468;28;20048;-59
2023/01/03 12:33:30;;;;;;;24.73;18.02;;;;;;;;;;5052638;28;20524;-59
2023/01/03 12:36:04;;;;;;;25.67;17.20;;;;;;;;;;5052509;28;20045;-59
2023/01/03 12:38:36;;;;;;;24.20;18.10;;;;;;;;;;5052654;28;20048;-59
2023/01/03 12:41:10;;;;;;;24.20;18.05;;;;;;;;;;5052644;28;20047;-59
2023/01/03 12:44:01;;;;;;;22.00;16.05;;;;;;;;;;5053061;28;20040;-59
2023/01/03 12:46:34;;;;;;;19.70;14.13;;;;;;;;;;5047224;28;20053;-60
2023/01/03 12:49:02;;;;;;;20.95;13.68;;;;;;;;;;5052593;28;20046;-60
2023/01/03 12:51:30;;;;;;;20.17;13.95;;;;;;;;;;5052253;28;20131;-60
2023/01/03 12:54:05;;;;;;;17.90;13.20;;;;;;;;;;5051522;28;20072;-60
2023/01/03 12:56:32;;;;;;;;;;;;;;;;;;5052817;28;20041;-59
2023/01/03 12:59:19;;;;;;;18.20;12.00;;;;;;;;;;5051058;28;19921;-59
2023/01/03 13:01:52;;;;;;;19.63;12.23;;;;;;;;;;5052442;28;20037;-60
2023/01/03 13:04:30;;;;;;;15.10;11.65;;;;;;;;;;5052336;28;20049;-60
2023/01/03 13:07:15;;;;;;;15.32;11.82;;;;;;;;;;5052485;28;20437;-59
2023/01/03 13:09:51;;;;;;;15.70;11.30;;;;;;;;;;5052177;28;20491;-59
2023/01/03 13:12:29;;;;;;;17.67;11.43;;;;;;;;;;5051964;28;20040;-59
2023/01/03 13:14:56;;;;;;;18.38;11.95;;;;;;;;;;5051999;28;20037;-59
2023/01/03 13:17:25;;;;;;;17.77;11.43;;;;;;;;;;5052164;28;20053;-59
2023/01/03 13:19:54;;;;;;;21.33;11.82;;;;;;;;;;5054656;28;20051;-59
2023/01/03 13:22:28;;;;;;;14.98;10.93;;;;;;;;;;5056134;28;20106;-59
2023/01/03 13:25:15;;;;;;;16.83;12.68;;;;;;;;;;5056188;28;20045;-59
2023/01/03 13:27:49;;;;;;;17.98;12.13;;;;;;;;;;5056096;28;20033;-59
2023/01/03 13:30:19;;;;;;;16.80;12.45;;;;;;;;;;5056255;28;20120;-59
2023/01/03 13:32:48;;;;;;;16.67;11.80;;;;;;;;;;5056076;28;20443;-59
2023/01/03 13:35:16;;;;;;;17.92;11.57;;;;;;;;;;5056023;28;20127;-59
2023/01/03 13:37:49;;;;;;;16.60;11.45;;;;;;;;;;5056262;28;20106;-59
2023/01/03 13:40:19;;;;;;;16.08;11.32;;;;;;;;;;5055848;28;20521;-59
2023/01/03 13:42:47;;;;;;;22.85;11.90;;;;;;;;;;5056035;28;20072;-59
2023/01/03 13:45:16;;;;;;;15.63;11.68;;;;;;;;;;5055780;28;20403;-59
2023/01/03 13:47:46;;;;;;;17.20;10.65;;;;;;;;;;5055987;28;20051;-59
2023/01/03 13:50:21;;;;;;;15.23;10.15;;;;;;;;;;5055983;28;20098;-60
2023/01/03 13:52:48;;;;;;;;;;;;;;;;;;5056298;28;20103;-60
2023/01/03 13:55:32;;;;;;;16.15;11.35;;;;;;;;;;5055578;28;20012;-60
2023/01/03 13:58:00;;;;;;;15.90;11.68;;;;;;;;;;5055703;28;20071;-59
2023/01/03 14:00:29;;;;;;;15.75;11.90;;;;;;;;;;5054281;28;20446;-60
2023/01/03 14:03:03;;;;;;;17.08;12.18;;;;;;;;;;5055873;28;20494;-61
2023/01/03 14:05:49;;;;;;;19.40;12.68;;;;;;;;;;5055403;28;20055;-60
2023/01/03 14:08:46;;;;;;;23.17;14.40;;;;;;;;;;5055288;28;20452;-61
2023/01/03 14:11:27;;;;;;;24.77;15.35;;;;;;;;;;5046758;28;20083;-59
2023/01/03 14:13:58;;;;;;;19.65;14.25;;;;;;;;;;5055183;28;20045;-60
2023/01/03 14:16:37;;;;;;;25.38;16.67;;;;;;;;;;5055088;28;20044;-60
2023/01/03 14:19:16;;;;;;;26.33;17.02;;;;;;;;;;5055140;28;20059;-60
2023/01/03 14:21:48;;;;;;;36.60;18.92;;;;;;;;;;5055063;28;20068;-60
2023/01/03 14:24:24;;;;;;;36.08;19.88;;;;;;;;;;5055068;28;20116;-60
2023/01/03 14:26:52;;;;;;;30.33;19.52;;;;;;;;;;5055032;28;20120;-61
2023/01/03 14:29:25;;;;;;;30.80;17.40;;;;;;;;;;5054933;28;20494;-60
2023/01/03 14:31:54;;;;;;;26.80;17.85;;;;;;;;;;5053734;28;20041;-60
2023/01/03 14:34:28;;;;;;;29.00;17.40;;;;;;;;;;5054619;28;20049;-59
2023/01/03 14:37:23;;;;;;;26.13;17.05;;;;;;;;;;5054939;28;20052;-59
2023/01/03 14:39:55;;;;;;;26.77;17.27;;;;;;;;;;5053460;28;20107;-59
2023/01/03 14:42:23;;;;;;;26.67;17.65;;;;;;;;;;5054640;28;20289;-59
2023/01/03 14:44:56;;;;;;;32.63;22.42;;;;;;;;;;5054781;28;20255;-61
2023/01/03 14:47:50;;;;;;;36.40;22.23;;;;;;;;;;5053002;28;20071;-61
2023/01/03 14:50:24;;;;;;;36.38;21.05;;;;;;;;;;5054962;28;20494;-60
2023/01/03 14:52:53;;;;;;;33.95;21.27;;;;;;;;;;5063843;28;20094;-61
2023/01/03 14:55:26;;;;;;;46.47;30.60;;;;;;;;;;5074848;28;20459;-62
2023/01/03 14:57:54;;;;;;;45.55;26.58;;;;;;;;;;5074498;28;20068;-62
2023/01/03 15:00:23;;;;;;;47.97;31.75;;;;;;;;;;5072666;28;20049;-62
2023/01/03 15:02:59;;;;;;;50.00;32.42;;;;;;;;;;5073154;28;20136;-62
2023/01/03 15:05:39;;;;;;;43.22;27.02;;;;;;;;;;5072657;28;20036;-59
2023/01/03 15:08:08;;;;;;;84.22;48.25;;;;;;;;;;5056630;28;20577;-60
2023/01/03 15:10:35;;;;;;;114.82;71.47;;;;;;;;;;5072652;28;20044;-59
2023/01/03 15:13:03;;;;;;;134.27;84.63;;;;;;;;;;5072778;28;20036;-58
2023/01/03 15:15:39;;;;;;;158.95;104.50;;;;;;;;;;5072763;28;20551;-58
2023/01/03 15:18:06;;;;;;;148.02;98.07;;;;;;;;;;5072660;28;20098;-57
2023/01/03 15:20:38;;;;;;;100.30;66.43;;;;;;;;;;5049648;28;20044;-59
2023/01/03 15:45:57;;;;;;;89.68;59.28;;;;;;;;;;4969650;28;20468;-62
2023/01/03 15:48:25;;;;;;;87.05;63.63;;;;;;;;;;4969276;28;20062;-62
2023/01/03 15:50:55;;;;;;;119.80;76.88;;;;;;;;;;4969521;28;20047;-61
2023/01/03 15:53:22;;;;;;;127.90;77.75;;;;;;;;;;4970764;28;20504;-62
2023/01/03 15:55:52;;;;;;;121.47;80.03;;;;;;;;;;4970339;28;20462;-62
2023/01/03 15:58:19;;;;;;;140.23;88.90;;;;;;;;;;4970705;28;20051;-62
2023/01/03 16:00:47;;;;;;;134.40;84.90;;;;;;;;;;4970360;28;20423;-62
2023/01/03 16:03:16;;;;;;;127.30;83.85;;;;;;;;;;4970273;28;20444;-62
2023/01/03 16:05:44;;;;;;;124.63;79.47;;;;;;;;;;4970363;28;20051;-62